Terminal Aerodrome Forecast
Issued by NWS Shreveport, LA

Home | Current Version | Previous Version | Text Only | Print | Product List | Glossary On
Versions: 1 2 3 4 5 6 7 8 9 10 11 12 13 14 15 16 17 18 19 20
670
FTUS44 KSHV 021756
TAFMLU
TAF
KMLU 021756Z 0218/0318 35007KT 5SM -SHRA BR VCTS OVC010CB
      TEMPO 0218/0220 P6SM -TSRA BKN008 OVC015CB
     FM022000 36008KT P6SM VCSH BKN020 OVC035
     FM030000 34005KT P6SM FEW030 OVC040
     FM030700 35006KT P6SM BKN015 OVC025
     FM030900 34006KT 5SM BR OVC009
     FM031300 36003KT 6SM BR OVC015
     FM031600 01005KT P6SM OVC025=

USA.gov is the U.S. government's official web portal to all federal, state and local government web resources and services.